Time;durP1;ratioP1;P1;durP2;ratioP2;P2;SDS_P1;SDS_P2;PMS_P1;PMS_P2;Temp;Humidity;BMP_temperature;BMP_pressure;BME280_temperature;BME280_humidity;BME280_pressure;Samples;Min_cycle;Max_cycle;Signal;HPM_P1;HPM_P2
2022/06/16 00:00:14;;;;;;;;;;;;;;;;;;5014569;28;19914;-73
2022/06/16 00:02:40;;;;;;;;;;;;;;;;;;5013975;28;19913;-74
2022/06/16 00:05:06;;;;;;;;;;;;;;;;;;5013904;28;19913;-74
2022/06/16 00:07:31;;;;;;;;;;;;;;;;;;5013911;28;19920;-74
2022/06/16 00:09:57;;;;;;;;;;;;;;;;;;5013923;28;19913;-74
2022/06/16 00:12:23;;;;;;;;;;;;;;;;;;5014148;28;19909;-74
2022/06/16 00:14:49;;;;;;;;;;;;;;;;;;5013860;28;19991;-73
2022/06/16 00:17:15;;;;;;;;;;;;;;;;;;5014089;28;19909;-73
2022/06/16 00:19:41;;;;;;;;;;;;;;;;;;5014054;28;20321;-73
2022/06/16 00:22:07;;;;;;;;;;;;;;;;;;5013784;28;19967;-73
2022/06/16 00:24:33;;;;;;;;;;;;;;;;;;5016931;28;19914;-75
2022/06/16 00:26:59;;;;;;;;;;;;;;;;;;5017726;28;19931;-73
2022/06/16 00:29:25;;;;;;;;;;;;;;;;;;5018238;28;19911;-74
2022/06/16 00:31:50;;;;;;;;;;;;;;;;;;5017638;28;19917;-75
2022/06/16 00:34:16;;;;;;;;;;;;;;;;;;5018138;28;19963;-74
2022/06/16 00:36:42;;;;;;;;;;;;;;;;;;5017564;28;20008;-74
2022/06/16 00:39:08;;;;;;;;;;;;;;;;;;5017446;28;19910;-75
2022/06/16 00:41:34;;;;;;;;;;;;;;;;;;5017280;28;19967;-73
2022/06/16 00:44:00;;;;;;;;;;;;;;;;;;5017609;28;19924;-74
2022/06/16 00:46:29;;;;;;;;;;;;;;;;;;5017353;28;20368;-74
2022/06/16 00:48:55;;;;;;;;;;;;;;;;;;5017877;28;19916;-73
2022/06/16 00:51:21;;;;;;;;;;;;;;;;;;5017282;28;19920;-73
2022/06/16 00:53:47;;;;;;;;;;;;;;;;;;5032513;28;19909;-74
2022/06/16 00:56:13;;;;;;;;;;;;;;;;;;5017204;28;20320;-73
2022/06/16 00:58:40;;;;;;;;;;;;;;;;;;5017205;28;19932;-74
2022/06/16 01:01:07;;;;;;;;;;;;;;;;;;5017452;28;20285;-74
2022/06/16 01:06:17;;;;;;;;;;;;;;;;;;5016814;28;19967;-74
2022/06/16 01:08:43;;;;;;;;;;;;;;;;;;5017022;28;19945;-73
2022/06/16 01:11:09;;;;;;;;;;;;;;;;;;5017012;28;19917;-73
2022/06/16 01:13:44;;;;;;;;;;;;;;;;;;5017468;28;20419;-75
2022/06/16 01:16:09;;;;;;;;;;;;;;;;;;5016799;28;19910;-73
2022/06/16 01:18:35;;;;;;;;;;;;;;;;;;5017331;28;20366;-73
2022/06/16 01:21:02;;;;;;;;;;;;;;;;;;5016738;28;19921;-74
2022/06/16 01:23:28;;;;;;;;;;;;;;;;;;5016998;28;19909;-73
2022/06/16 01:25:54;;;;;;;;;;;;;;;;;;5016589;28;20012;-74
2022/06/16 01:28:20;;;;;;;;;;;;;;;;;;5031822;28;19944;-73
2022/06/16 01:30:46;;;;;;;;;;;;;;;;;;5016624;28;20403;-74
2022/06/16 01:33:12;;;;;;;;;;;;;;;;;;5017088;28;19920;-74
2022/06/16 01:35:38;;;;;;;;;;;;;;;;;;5016969;28;19996;-75
2022/06/16 01:38:04;;;;;;;;;;;;;;;;;;5016324;28;19909;-74
2022/06/16 01:40:29;;;;;;;;;;;;;;;;;;5016437;28;19917;-71
2022/06/16 01:42:55;;;;;;;;;;;;;;;;;;5016943;28;20263;-74
2022/06/16 01:45:21;;;;;;;;;;;;;;;;;;5016214;28;19921;-74
2022/06/16 01:47:47;;;;;;;;;;;;;;;;;;5016803;28;20361;-74
2022/06/16 01:50:13;;;;;;;;;;;;;;;;;;5016170;28;19915;-75
2022/06/16 01:52:39;;;;;;;;;;;;;;;;;;5016442;28;19910;-74
2022/06/16 01:55:05;;;;;;;;;;;;;;;;;;5016118;28;19941;-75
2022/06/16 01:57:31;;;;;;;;;;;;;;;;;;5016639;28;20082;-75
2022/06/16 01:59:57;;;;;;;;;;;;;;;;;;5016253;28;19909;-73
2022/06/16 02:02:23;;;;;;;;;;;;;;;;;;5015945;28;19915;-74
2022/06/16 02:04:49;;;;;;;;;;;;;;;;;;5016112;28;19964;-73
2022/06/16 02:07:17;;;;;;;;;;;;;;;;;;5016164;28;20354;-74
2022/06/16 02:09:43;;;;;;;;;;;;;;;;;;5015843;28;20373;-75
2022/06/16 02:12:09;;;;;;;;;;;;;;;;;;5016315;28;20013;-73
2022/06/16 02:14:34;;;;;;;;;;;;;;;;;;5030931;28;19917;-73
2022/06/16 02:17:00;;;;;;;;;;;;;;;;;;5016239;28;20338;-73
2022/06/16 02:19:26;;;;;;;;;;;;;;;;;;5015936;28;19909;-74
2022/06/16 02:21:52;;;;;;;;;;;;;;;;;;5015567;28;20255;-74
2022/06/16 02:24:19;;;;;;;;;;;;;;;;;;5015516;28;19967;-74
2022/06/16 02:26:45;;;;;;;;;;;;;;;;;;5030600;28;19910;-76
2022/06/16 02:29:11;;;;;;;;;;;;;;;;;;5015468;28;19963;-74
2022/06/16 02:31:37;;;;;;;;;;;;;;;;;;5015718;28;19916;-74
2022/06/16 02:34:03;;;;;;;;;;;;;;;;;;5015703;28;19909;-74
2022/06/16 02:36:28;;;;;;;;;;;;;;;;;;5015355;28;20374;-74
2022/06/16 02:38:54;;;;;;;;;;;;;;;;;;5015198;28;19909;-73
2022/06/16 02:41:20;;;;;;;;;;;;;;;;;;5015189;28;19940;-74
2022/06/16 02:43:46;;;;;;;;;;;;;;;;;;5015415;28;19910;-75
2022/06/16 02:46:12;;;;;;;;;;;;;;;;;;5014618;28;19914;-74
2022/06/16 02:48:38;;;;;;;;;;;;;;;;;;5015142;28;19909;-74
2022/06/16 02:51:04;;;;;;;;;;;;;;;;;;5015122;28;19944;-74
2022/06/16 02:53:33;;;;;;;;;;;;;;;;;;5015058;28;20391;-74
2022/06/16 02:55:59;;;;;;;;;;;;;;;;;;5015032;28;20325;-73
2022/06/16 02:58:25;;;;;;;;;;;;;;;;;;5030122;28;19909;-73
2022/06/16 03:00:51;;;;;;;;;;;;;;;;;;5014903;28;19955;-76
2022/06/16 03:03:17;;;;;;;;;;;;;;;;;;5015175;28;19914;-73
2022/06/16 03:05:42;;;;;;;;;;;;;;;;;;5015063;28;20321;-72
2022/06/16 03:08:08;;;;;;;;;;;;;;;;;;5014773;28;19932;-74
2022/06/16 03:10:53;;;;;;;;;;;;;;;;;;5014782;28;19909;-75
2022/06/16 03:13:19;;;;;;;;;;;;;;;;;;5014724;28;19909;-73
2022/06/16 03:15:44;;;;;;;;;;;;;;;;;;5014631;28;19909;-74
2022/06/16 03:18:10;;;;;;;;;;;;;;;;;;5014657;28;19964;-74
2022/06/16 03:20:36;;;;;;;;;;;;;;;;;;5014865;28;19955;-73
2022/06/16 03:23:02;;;;;;;;;;;;;;;;;;5014790;28;19968;-73
2022/06/16 03:25:28;;;;;;;;;;;;;;;;;;5014411;28;19920;-74
2022/06/16 03:27:55;;;;;;;;;;;;;;;;;;5014422;28;19909;-73
2022/06/16 03:30:21;;;;;;;;;;;;;;;;;;5014419;28;20289;-74
2022/06/16 03:32:46;;;;;;;;;;;;;;;;;;5014397;28;19910;-76
2022/06/16 03:35:12;;;;;;;;;;;;;;;;;;5014618;28;19960;-74
2022/06/16 03:37:40;;;;;;;;;;;;;;;;;;5014493;28;20342;-74
2022/06/16 03:40:07;;;;;;;;;;;;;;;;;;5029257;28;19983;-73
2022/06/16 03:42:33;;;;;;;;;;;;;;;;;;5014814;28;20004;-73
2022/06/16 03:44:59;;;;;;;;;;;;;;;;;;5014132;28;20059;-74
2022/06/16 03:47:25;;;;;;;;;;;;;;;;;;5014448;28;19909;-73
2022/06/16 03:49:50;;;;;;;;;;;;;;;;;;5014147;28;19909;-73
2022/06/16 03:52:16;;;;;;;;;;;;;;;;;;5014344;28;19916;-73
2022/06/16 03:54:42;;;;;;;;;;;;;;;;;;5014035;28;19914;-74
2022/06/16 03:57:08;;;;;;;;;;;;;;;;;;5013782;28;20317;-74
2022/06/16 03:59:34;;;;;;;;;;;;;;;;;;5013444;28;19917;-74
2022/06/16 04:02:00;;;;;;;;;;;;;;;;;;5029191;28;19914;-74
2022/06/16 04:04:26;;;;;;;;;;;;;;;;;;5013940;28;19920;-74
2022/06/16 04:06:52;;;;;;;;;;;;;;;;;;5013940;28;19918;-75
2022/06/16 04:09:18;;;;;;;;;;;;;;;;;;5014191;28;20309;-74
2022/06/16 04:11:43;;;;;;;;;;;;;;;;;;5013907;28;19996;-73
2022/06/16 04:14:09;;;;;;;;;;;;;;;;;;5013928;28;20266;-74
2022/06/16 04:16:35;;;;;;;;;;;;;;;;;;5013856;28;19910;-74
2022/06/16 04:19:01;;;;;;;;;;;;;;;;;;5014100;28;19916;-75
2022/06/16 04:21:27;;;;;;;;;;;;;;;;;;5014103;28;20294;-74
2022/06/16 04:23:53;;;;;;;;;;;;;;;;;;5013713;28;19910;-74
2022/06/16 04:26:19;;;;;;;;;;;;;;;;;;5014005;28;19949;-73
2022/06/16 04:28:45;;;;;;;;;;;;;;;;;;5028922;28;19916;-74
2022/06/16 04:31:11;;;;;;;;;;;;;;;;;;5013682;28;19913;-73
2022/06/16 04:33:37;;;;;;;;;;;;;;;;;;5013699;28;20401;-74
2022/06/16 04:36:03;;;;;;;;;;;;;;;;;;5013696;28;19992;-73
2022/06/16 04:38:28;;;;;;;;;;;;;;;;;;5013631;28;19976;-74
2022/06/16 04:40:54;;;;;;;;;;;;;;;;;;5013626;28;19921;-73
2022/06/16 04:43:20;;;;;;;;;;;;;;;;;;5014191;28;19910;-74
2022/06/16 04:45:46;;;;;;;;;;;;;;;;;;5013516;28;19932;-74
2022/06/16 04:48:12;;;;;;;;;;;;;;;;;;5028717;28;19914;-74
2022/06/16 04:50:38;;;;;;;;;;;;;;;;;;5013852;28;19965;-73
2022/06/16 04:53:04;;;;;;;;;;;;;;;;;;5013547;28;20011;-73
2022/06/16 04:55:30;;;;;;;;;;;;;;;;;;5014073;28;20377;-74
2022/06/16 04:57:56;;;;;;;;;;;;;;;;;;5013492;28;19910;-74
2022/06/16 05:00:22;;;;;;;;;;;;;;;;;;5013766;28;19921;-73
2022/06/16 05:02:48;;;;;;;;;;;;;;;;;;5013448;28;19979;-74
2022/06/16 05:05:14;;;;;;;;;;;;;;;;;;5013389;28;20016;-73
2022/06/16 05:07:40;;;;;;;;;;;;;;;;;;5013472;28;19910;-74
2022/06/16 05:10:06;;;;;;;;;;;;;;;;;;5015644;28;19952;-74
2022/06/16 05:12:32;;;;;;;;;;;;;;;;;;5017188;28;19919;-73
2022/06/16 05:14:57;;;;;;;;;;;;;;;;;;5016905;28;19913;-74
2022/06/16 05:17:23;;;;;;;;;;;;;;;;;;5032066;28;19910;-74
2022/06/16 05:19:49;;;;;;;;;;;;;;;;;;5032013;28;19909;-73
2022/06/16 05:22:15;;;;;;;;;;;;;;;;;;5016730;28;19956;-74
2022/06/16 05:24:41;;;;;;;;;;;;;;;;;;5031812;28;19914;-74
2022/06/16 05:27:07;;;;;;;;;;;;;;;;;;5016672;28;20292;-73
2022/06/16 05:29:33;;;;;;;;;;;;;;;;;;5016953;28;19914;-73
2022/06/16 05:31:59;;;;;;;;;;;;;;;;;;5017016;28;20262;-73
2022/06/16 05:34:25;;;;;;;;;;;;;;;;;;5016732;28;19964;-75
2022/06/16 05:36:51;;;;;;;;;;;;;;;;;;5016779;28;19916;-74
2022/06/16 05:39:16;;;;;;;;;;;;;;;;;;5016356;28;20332;-75
2022/06/16 05:41:42;;;;;;;;;;;;;;;;;;5016207;28;20427;-74
2022/06/16 05:44:08;;;;;;;;;;;;;;;;;;5016477;28;19954;-73
2022/06/16 05:46:34;;;;;;;;;;;;;;;;;;5016263;28;20345;-74
2022/06/16 05:49:00;;;;;;;;;;;;;;;;;;5016558;28;19916;-74
2022/06/16 05:51:26;;;;;;;;;;;;;;;;;;5016186;28;19937;-74
2022/06/16 05:53:52;;;;;;;;;;;;;;;;;;5016689;28;20312;-73
2022/06/16 05:56:18;;;;;;;;;;;;;;;;;;5016375;28;19910;-74
2022/06/16 05:58:44;;;;;;;;;;;;;;;;;;5016641;28;19910;-73
2022/06/16 06:01:10;;;;;;;;;;;;;;;;;;5016002;28;19916;-75
2022/06/16 06:03:36;;;;;;;;;;;;;;;;;;5031810;28;19909;-74
2022/06/16 06:06:02;;;;;;;;;;;;;;;;;;5015936;28;20028;-73
2022/06/16 06:16:42;;;;;;;;;;;;;;;;;;5016115;28;19934;-74
2022/06/16 06:19:23;;;;;;;;;;;;;;;;;;5015732;28;19949;-73
2022/06/16 06:21:58;;;;;;;;;;;;;;;;;;5014782;28;19916;-72
2022/06/16 06:24:24;;;;;;;;;;;;;;;;;;5015542;28;20003;-73
2022/06/16 06:26:49;;;;;;;;;;;;;;;;;;5015569;28;19957;-75
2022/06/16 06:29:15;;;;;;;;;;;;;;;;;;5015826;28;20242;-73
2022/06/16 06:31:41;;;;;;;;;;;;;;;;;;5015744;28;19917;-74
2022/06/16 06:34:07;;;;;;;;;;;;;;;;;;5015980;28;19910;-73
2022/06/16 06:36:33;;;;;;;;;;;;;;;;;;5015424;28;19909;-75
2022/06/16 06:38:59;;;;;;;;;;;;;;;;;;5015358;28;19960;-74
2022/06/16 06:41:25;;;;;;;;;;;;;;;;;;5015337;28;20301;-74
2022/06/16 06:43:51;;;;;;;;;;;;;;;;;;5015763;28;19959;-75
2022/06/16 06:46:16;;;;;;;;;;;;;;;;;;5015172;28;20004;-74
2022/06/16 06:48:42;;;;;;;;;;;;;;;;;;5015179;28;19916;-74
2022/06/16 06:51:08;;;;;;;;;;;;;;;;;;5015096;28;19910;-74
2022/06/16 06:53:34;;;;;;;;;;;;;;;;;;5017447;28;20381;-76
2022/06/16 06:56:00;;;;;;;;;;;;;;;;;;5032618;28;19917;-77
2022/06/16 06:58:26;;;;;;;;;;;;;;;;;;5034060;28;19917;-78
2022/06/16 07:00:53;;;;;;;;;;;;;;;;;;5033884;28;19936;-74
2022/06/16 07:03:19;;;;;;;;;;;;;;;;;;5033530;28;19916;-75
2022/06/16 07:05:45;;;;;;;;;;;;;;;;;;5034642;28;19913;-77
2022/06/16 07:08:11;;;;;;;;;;;;;;;;;;5034030;28;19925;-77
2022/06/16 07:10:37;;;;;;;;;;;;;;;;;;5034511;28;19916;-78
2022/06/16 07:13:03;;;;;;;;;;;;;;;;;;5033593;28;19913;-76
2022/06/16 07:15:30;;;;;;;;;;;;;;;;;;5032334;28;19916;-75
2022/06/16 07:17:56;;;;;;;;;;;;;;;;;;5031950;28;19936;-75
2022/06/16 07:20:22;;;;;;;;;;;;;;;;;;5032442;28;19979;-80
2022/06/16 07:22:47;;;;;;;;;;;;;;;;;;5033256;28;19913;-78
2022/06/16 07:25:13;;;;;;;;;;;;;;;;;;5032942;28;19979;-79
2022/06/16 07:27:39;;;;;;;;;;;;;;;;;;5034219;28;19917;-77
2022/06/16 07:30:05;;;;;;;;;;;;;;;;;;5033091;28;19952;-75
2022/06/16 07:32:31;;;;;;;;;;;;;;;;;;5032538;28;19918;-78
2022/06/16 07:34:57;;;;;;;;;;;;;;;;;;5034025;28;19959;-82
2022/06/16 07:37:23;;;;;;;;;;;;;;;;;;5034051;28;19966;-79
2022/06/16 07:39:49;;;;;;;;;;;;;;;;;;5032929;28;19913;-79
2022/06/16 07:42:14;;;;;;;;;;;;;;;;;;5033358;28;19928;-80
2022/06/16 07:44:40;;;;;;;;;;;;;;;;;;5024602;28;20373;-79
2022/06/16 07:47:06;;;;;;;;;;;;;;;;;;5029433;28;19956;-78
2022/06/16 07:49:32;;;;;;;;;;;;;;;;;;5027472;28;20362;-76
2022/06/16 07:51:58;;;;;;;;;;;;;;;;;;5033267;28;20336;-77
2022/06/16 07:54:24;;;;;;;;;;;;;;;;;;5031575;28;20001;-79
2022/06/16 07:56:50;;;;;;;;;;;;;;;;;;5032328;28;19909;-79
2022/06/16 07:59:16;;;;;;;;;;;;;;;;;;5032576;28;19975;-78
2022/06/16 08:01:42;;;;;;;;;;;;;;;;;;5032905;28;19921;-75
2022/06/16 08:04:08;;;;;;;;;;;;;;;;;;5033507;28;19916;-75
2022/06/16 08:06:34;;;;;;;;;;;;;;;;;;5033798;28;19936;-75
2022/06/16 08:09:00;;;;;;;;;;;;;;;;;;5033818;28;19956;-75
2022/06/16 08:14:10;;;;;;;;;;;;;;;;;;5033367;28;19981;-78
2022/06/16 08:16:36;;;;;;;;;;;;;;;;;;5032463;28;19913;-76
2022/06/16 08:19:02;;;;;;;;;;;;;;;;;;5034124;28;20282;-77
2022/06/16 08:21:28;;;;;;;;;;;;;;;;;;5032367;28;20323;-75
2022/06/16 08:23:54;;;;;;;;;;;;;;;;;;5032349;28;20369;-77
2022/06/16 08:26:20;;;;;;;;;;;;;;;;;;5033775;28;19914;-79
2022/06/16 08:28:46;;;;;;;;;;;;;;;;;;5032599;28;19910;-76
2022/06/16 08:31:12;;;;;;;;;;;;;;;;;;5033067;28;20395;-79
2022/06/16 08:33:38;;;;;;;;;;;;;;;;;;5032211;28;19916;-76
2022/06/16 08:36:04;;;;;;;;;;;;;;;;;;5032504;28;19913;-77
2022/06/16 08:38:29;;;;;;;;;;;;;;;;;;5033416;28;19916;-75
2022/06/16 08:41:13;;;;;;;;;;;;;;;;;;5032636;28;20215;-75
2022/06/16 08:43:39;;;;;;;;;;;;;;;;;;5032357;28;19917;-76
2022/06/16 08:46:05;;;;;;;;;;;;;;;;;;5037327;28;19963;-78
2022/06/16 08:48:31;;;;;;;;;;;;;;;;;;5037212;28;19963;-75
2022/06/16 08:50:57;;;;;;;;;;;;;;;;;;5037424;28;19909;-75
2022/06/16 08:53:23;;;;;;;;;;;;;;;;;;5037190;28;19917;-74
2022/06/16 08:55:49;;;;;;;;;;;;;;;;;;5037172;28;20004;-74
2022/06/16 08:58:15;;;;;;;;;;;;;;;;;;5034730;28;20013;-76
2022/06/16 09:00:41;;;;;;;;;;;;;;;;;;5031311;28;20373;-75
2022/06/16 09:03:07;;;;;;;;;;;;;;;;;;5036307;28;19971;-76
2022/06/16 09:05:33;;;;;;;;;;;;;;;;;;5037418;28;19966;-76
2022/06/16 09:07:59;;;;;;;;;;;;;;;;;;5036881;28;19916;-76
2022/06/16 09:10:25;;;;;;;;;;;;;;;;;;5036223;28;19913;-75
2022/06/16 09:12:51;;;;;;;;;;;;;;;;;;5035879;28;20059;-76
2022/06/16 09:15:21;;;;;;;;;;;;;;;;;;5036080;28;19914;-77
2022/06/16 09:17:47;;;;;;;;;;;;;;;;;;5037411;28;19909;-77
2022/06/16 09:20:13;;;;;;;;;;;;;;;;;;5035338;28;19913;-79
2022/06/16 09:22:39;;;;;;;;;;;;;;;;;;5032887;28;19920;-78
2022/06/16 09:25:05;;;;;;;;;;;;;;;;;;5036076;28;21730;-76
2022/06/16 09:27:31;;;;;;;;;;;;;;;;;;5036442;28;20280;-77
2022/06/16 09:29:56;;;;;;;;;;;;;;;;;;5036899;28;20399;-77
2022/06/16 09:32:22;;;;;;;;;;;;;;;;;;5035934;28;20016;-77
2022/06/16 09:34:48;;;;;;;;;;;;;;;;;;5036399;28;20336;-76
2022/06/16 09:37:14;;;;;;;;;;;;;;;;;;5035779;28;19963;-78
2022/06/16 09:39:40;;;;;;;;;;;;;;;;;;5036290;28;19909;-81
2022/06/16 09:44:50;;;;;;;;;;;;;;;;;;5035893;28;20360;-78
2022/06/16 09:47:16;;;;;;;;;;;;;;;;;;5036398;28;19909;-81
2022/06/16 09:49:42;;;;;;;;;;;;;;;;;;5036158;28;20012;-76
2022/06/16 09:52:08;;;;;;;;;;;;;;;;;;5035501;28;20407;-77
2022/06/16 09:54:34;;;;;;;;;;;;;;;;;;5036616;28;19916;-75
2022/06/16 09:57:00;;;;;;;;;;;;;;;;;;5028900;28;19956;-75
2022/06/16 09:59:26;;;;;;;;;;;;;;;;;;5034512;28;19913;-76
2022/06/16 10:01:52;;;;;;;;;;;;;;;;;;5035181;28;19944;-78
2022/06/16 10:04:18;;;;;;;;;;;;;;;;;;5036326;28;19915;-77
2022/06/16 10:06:44;;;;;;;;;;;;;;;;;;5034319;28;19909;-78
2022/06/16 10:09:10;;;;;;;;;;;;;;;;;;5035348;28;19959;-78
2022/06/16 10:11:36;;;;;;;;;;;;;;;;;;5035376;28;20245;-76
2022/06/16 10:14:02;;;;;;;;;;;;;;;;;;5036184;28;19920;-78
2022/06/16 10:16:28;;;;;;;;;;;;;;;;;;5033844;28;20278;-77
2022/06/16 10:18:54;;;;;;;;;;;;;;;;;;5035022;28;19966;-78
2022/06/16 10:21:21;;;;;;;;;;;;;;;;;;5035180;28;19959;-75
2022/06/16 10:23:47;;;;;;;;;;;;;;;;;;5035353;28;20384;-74
2022/06/16 10:26:13;;;;;;;;;;;;;;;;;;5035325;28;19917;-78
2022/06/16 10:28:39;;;;;;;;;;;;;;;;;;5034784;28;19909;-78
2022/06/16 10:31:04;;;;;;;;;;;;;;;;;;5030552;28;19931;-77
2022/06/16 10:33:30;;;;;;;;;;;;;;;;;;5015085;28;19910;-76
2022/06/16 10:35:56;;;;;;;;;;;;;;;;;;5015554;28;19917;-76
2022/06/16 10:38:22;;;;;;;;;;;;;;;;;;5015670;28;19913;-76
2022/06/16 10:40:48;;;;;;;;;;;;;;;;;;5015142;28;19921;-76
2022/06/16 10:43:14;;;;;;;;;;;;;;;;;;5015236;28;19985;-76
2022/06/16 10:45:40;;;;;;;;;;;;;;;;;;5014456;28;19913;-76
2022/06/16 10:48:06;;;;;;;;;;;;;;;;;;5014393;28;19909;-76
2022/06/16 10:50:32;;;;;;;;;;;;;;;;;;5014413;28;20008;-76
2022/06/16 10:52:58;;;;;;;;;;;;;;;;;;5014330;28;19963;-75
2022/06/16 10:55:25;;;;;;;;;;;;;;;;;;5014290;28;19909;-75
2022/06/16 10:57:50;;;;;;;;;;;;;;;;;;5014931;28;20255;-75
2022/06/16 11:00:16;;;;;;;;;;;;;;;;;;5015349;28;19963;-76
2022/06/16 11:02:42;;;;;;;;;;;;;;;;;;5030170;28;19914;-75
2022/06/16 11:05:08;;;;;;;;;;;;;;;;;;5015362;28;20345;-74
2022/06/16 11:07:34;;;;;;;;;;;;;;;;;;5014718;28;19909;-75
2022/06/16 11:10:00;;;;;;;;;;;;;;;;;;5014788;28;19992;-76
2022/06/16 11:12:26;;;;;;;;;;;;;;;;;;5013624;28;19947;-75
2022/06/16 11:14:52;;;;;;;;;;;;;;;;;;5029794;28;19913;-75
2022/06/16 11:17:18;;;;;;;;;;;;;;;;;;5014679;28;19916;-76
2022/06/16 11:19:44;;;;;;;;;;;;;;;;;;5014632;28;19963;-74
2022/06/16 11:22:10;;;;;;;;;;;;;;;;;;5015167;28;19910;-76
2022/06/16 11:24:35;;;;;;;;;;;;;;;;;;5014482;28;19921;-76
2022/06/16 11:27:03;;;;;;;;;;;;;;;;;;5014780;28;19909;-75
2022/06/16 11:29:29;;;;;;;;;;;;;;;;;;5029695;28;20321;-76
2022/06/16 11:31:55;;;;;;;;;;;;;;;;;;5014454;28;19910;-76
2022/06/16 11:34:20;;;;;;;;;;;;;;;;;;5014380;28;19917;-76
2022/06/16 11:36:46;;;;;;;;;;;;;;;;;;5014891;28;20354;-75
2022/06/16 11:39:12;;;;;;;;;;;;;;;;;;5014320;28;19921;-75
2022/06/16 11:41:38;;;;;;;;;;;;;;;;;;5013971;28;19968;-76
2022/06/16 11:44:04;;;;;;;;;;;;;;;;;;5014747;28;19914;-75
2022/06/16 11:46:30;;;;;;;;;;;;;;;;;;5014202;28;19953;-75
2022/06/16 11:48:56;;;;;;;;;;;;;;;;;;5014455;28;20000;-75
2022/06/16 11:51:22;;;;;;;;;;;;;;;;;;5014446;28;19909;-75
2022/06/16 11:53:48;;;;;;;;;;;;;;;;;;5014661;28;19916;-75
2022/06/16 11:56:14;;;;;;;;;;;;;;;;;;5014083;28;19916;-75
2022/06/16 11:58:39;;;;;;;;;;;;;;;;;;5014310;28;19916;-75
2022/06/16 12:01:05;;;;;;;;;;;;;;;;;;5014008;28;19909;-75
2022/06/16 12:03:31;;;;;;;;;;;;;;;;;;5029140;28;20392;-76
2022/06/16 12:05:57;;;;;;;;;;;;;;;;;;5029133;28;20009;-76
2022/06/16 12:08:25;;;;;;;;;;;;;;;;;;5014244;28;19945;-76
2022/06/16 12:10:51;;;;;;;;;;;;;;;;;;5023335;28;19909;-77
2022/06/16 12:13:17;;;;;;;;;;;;;;;;;;5030057;28;19974;-77
2022/06/16 12:15:44;;;;;;;;;;;;;;;;;;5028008;28;19917;-79
2022/06/16 12:18:10;;;;;;;;;;;;;;;;;;5026915;28;19914;-76
2022/06/16 12:20:35;;;;;;;;;;;;;;;;;;5034963;28;19963;-79
2022/06/16 12:23:01;;;;;;;;;;;;;;;;;;5038203;28;20270;-77
2022/06/16 12:25:27;;;;;;;;;;;;;;;;;;5037501;28;19961;-85
2022/06/16 12:27:53;;;;;;;;;;;;;;;;;;5037248;28;19909;-79
2022/06/16 12:30:19;;;;;;;;;;;;;;;;;;5037375;28;19920;-81
2022/06/16 12:32:45;;;;;;;;;;;;;;;;;;5033526;28;19964;-77
2022/06/16 12:35:11;;;;;;;;;;;;;;;;;;5039163;28;20000;-77
2022/06/16 12:37:37;;;;;;;;;;;;;;;;;;5035417;28;19915;-81
2022/06/16 12:40:03;;;;;;;;;;;;;;;;;;5037624;28;19979;-77
2022/06/16 12:42:28;;;;;;;;;;;;;;;;;;5034704;28;20016;-76
2022/06/16 12:44:55;;;;;;;;;;;;;;;;;;5037224;28;19975;-76
2022/06/16 12:47:20;;;;;;;;;;;;;;;;;;5026028;28;20012;-78
2022/06/16 12:49:46;;;;;;;;;;;;;;;;;;5030937;28;19948;-78
2022/06/16 12:52:12;;;;;;;;;;;;;;;;;;5036706;28;19966;-77
2022/06/16 12:54:38;;;;;;;;;;;;;;;;;;5036648;28;19909;-75
2022/06/16 12:57:04;;;;;;;;;;;;;;;;;;5036780;28;19921;-74
2022/06/16 12:59:30;;;;;;;;;;;;;;;;;;5035769;28;19967;-75
2022/06/16 13:01:56;;;;;;;;;;;;;;;;;;5035249;28;20284;-79
2022/06/16 13:04:22;;;;;;;;;;;;;;;;;;5036945;28;19959;-83
2022/06/16 13:06:47;;;;;;;;;;;;;;;;;;5037767;28;19913;-82
2022/06/16 13:09:13;;;;;;;;;;;;;;;;;;5035373;28;19913;-77
2022/06/16 13:11:39;;;;;;;;;;;;;;;;;;5026648;28;20412;-75
2022/06/16 13:14:06;;;;;;;;;;;;;;;;;;5035357;28;20259;-74
2022/06/16 13:16:32;;;;;;;;;;;;;;;;;;5021917;28;19909;-76
2022/06/16 13:18:58;;;;;;;;;;;;;;;;;;5036368;28;20365;-76
2022/06/16 13:21:24;;;;;;;;;;;;;;;;;;5034482;28;19913;-75
2022/06/16 13:23:55;;;;;;;;;;;;;;;;;;5036893;28;19909;-78
2022/06/16 13:26:21;;;;;;;;;;;;;;;;;;5036857;28;19971;-78
2022/06/16 13:28:47;;;;;;;;;;;;;;;;;;5035380;28;19917;-75
2022/06/16 13:31:13;;;;;;;;;;;;;;;;;;5034817;28;19913;-74
2022/06/16 13:33:39;;;;;;;;;;;;;;;;;;5035458;28;20344;-76
2022/06/16 13:36:05;;;;;;;;;;;;;;;;;;5036791;28;19913;-76
2022/06/16 13:38:31;;;;;;;;;;;;;;;;;;5036786;28;19909;-75
2022/06/16 13:40:57;;;;;;;;;;;;;;;;;;5035577;28;20431;-76
2022/06/16 13:43:24;;;;;;;;;;;;;;;;;;5034333;28;19917;-77
2022/06/16 13:45:52;;;;;;;;;;;;;;;;;;5036090;28;19952;-76
2022/06/16 13:48:18;;;;;;;;;;;;;;;;;;5035314;28;20348;-84
2022/06/16 13:50:44;;;;;;;;;;;;;;;;;;5034774;28;19909;-75
2022/06/16 13:53:10;;;;;;;;;;;;;;;;;;5035267;28;19936;-76
2022/06/16 13:55:35;;;;;;;;;;;;;;;;;;5036141;28;20292;-77
2022/06/16 13:58:01;;;;;;;;;;;;;;;;;;5036542;28;19909;-76
2022/06/16 14:00:27;;;;;;;;;;;;;;;;;;5036432;28;19913;-77
2022/06/16 14:02:54;;;;;;;;;;;;;;;;;;5036293;28;19995;-76
2022/06/16 14:05:20;;;;;;;;;;;;;;;;;;5017243;28;20013;-76
2022/06/16 14:07:46;;;;;;;;;;;;;;;;;;5016395;28;20341;-76
2022/06/16 14:10:12;;;;;;;;;;;;;;;;;;5032262;28;19913;-76
2022/06/16 14:12:38;;;;;;;;;;;;;;;;;;5034748;28;20301;-75
2022/06/16 14:15:04;;;;;;;;;;;;;;;;;;5036425;28;19910;-76
2022/06/16 14:17:29;;;;;;;;;;;;;;;;;;5035843;28;19909;-76
2022/06/16 14:19:55;;;;;;;;;;;;;;;;;;5033200;28;20296;-76
2022/06/16 14:22:21;;;;;;;;;;;;;;;;;;5035701;28;19909;-75
2022/06/16 14:24:47;;;;;;;;;;;;;;;;;;5035344;28;19994;-75
2022/06/16 14:27:13;;;;;;;;;;;;;;;;;;5035239;28;19917;-76
2022/06/16 14:29:39;;;;;;;;;;;;;;;;;;5034660;28;19966;-76
2022/06/16 14:32:05;;;;;;;;;;;;;;;;;;5034756;28;19920;-76
2022/06/16 14:34:39;;;;;;;;;;;;;;;;;;5035501;28;19909;-78
2022/06/16 14:37:05;;;;;;;;;;;;;;;;;;5035639;28;20387;-77
2022/06/16 14:39:31;;;;;;;;;;;;;;;;;;5034895;28;19913;-77
2022/06/16 14:41:57;;;;;;;;;;;;;;;;;;5033992;28;19963;-79
2022/06/16 14:44:22;;;;;;;;;;;;;;;;;;5035052;28;20284;-76
2022/06/16 14:46:48;;;;;;;;;;;;;;;;;;5034952;28;19913;-80
2022/06/16 14:49:14;;;;;;;;;;;;;;;;;;5034594;28;20282;-78
2022/06/16 14:51:40;;;;;;;;;;;;;;;;;;5032537;28;19920;-76
2022/06/16 14:54:08;;;;;;;;;;;;;;;;;;5034765;28;19909;-79
2022/06/16 14:56:34;;;;;;;;;;;;;;;;;;5034251;28;20438;-81
2022/06/16 14:59:00;;;;;;;;;;;;;;;;;;5034741;28;19915;-74
2022/06/16 15:01:26;;;;;;;;;;;;;;;;;;5025651;28;19913;-76
2022/06/16 15:03:52;;;;;;;;;;;;;;;;;;5020589;28;19909;-78
2022/06/16 15:06:18;;;;;;;;;;;;;;;;;;5033976;28;19972;-78
2022/06/16 15:08:44;;;;;;;;;;;;;;;;;;5032932;28;19913;-77
2022/06/16 15:11:10;;;;;;;;;;;;;;;;;;5033488;28;19921;-75
2022/06/16 15:13:36;;;;;;;;;;;;;;;;;;5032715;28;19909;-74
2022/06/16 15:16:02;;;;;;;;;;;;;;;;;;5031288;28;20401;-77
2022/06/16 15:18:28;;;;;;;;;;;;;;;;;;5017320;28;19916;-76
2022/06/16 15:20:54;;;;;;;;;;;;;;;;;;5014059;28;20285;-76
2022/06/16 15:23:20;;;;;;;;;;;;;;;;;;5029553;28;20410;-76
2022/06/16 15:25:46;;;;;;;;;;;;;;;;;;5031967;28;19921;-75
2022/06/16 15:28:12;;;;;;;;;;;;;;;;;;5032033;28;19916;-75
2022/06/16 15:30:38;;;;;;;;;;;;;;;;;;5032726;28;19941;-76
2022/06/16 15:38:33;;;;;;;;;;;;;;;;;;5033930;28;19960;-75
2022/06/16 15:40:59;;;;;;;;;;;;;;;;;;5033821;28;19921;-75
2022/06/16 15:43:24;;;;;;;;;;;;;;;;;;5033999;28;19948;-74
2022/06/16 15:45:51;;;;;;;;;;;;;;;;;;5034183;28;20007;-75
2022/06/16 15:48:17;;;;;;;;;;;;;;;;;;5033928;28;19909;-75
2022/06/16 15:50:43;;;;;;;;;;;;;;;;;;5033892;28;19917;-74
2022/06/16 15:53:08;;;;;;;;;;;;;;;;;;5034115;28;19909;-76
2022/06/16 15:55:34;;;;;;;;;;;;;;;;;;5032583;28;19909;-75
2022/06/16 15:58:00;;;;;;;;;;;;;;;;;;5033837;28;19917;-75
2022/06/16 16:00:26;;;;;;;;;;;;;;;;;;5033843;28;19935;-73
2022/06/16 16:02:52;;;;;;;;;;;;;;;;;;5034083;28;20043;-76
2022/06/16 16:05:18;;;;;;;;;;;;;;;;;;5033681;28;20281;-74
2022/06/16 16:07:44;;;;;;;;;;;;;;;;;;5033746;28;19909;-74
2022/06/16 16:10:10;;;;;;;;;;;;;;;;;;5033634;28;19932;-72
2022/06/16 16:12:36;;;;;;;;;;;;;;;;;;5032383;28;19913;-74
2022/06/16 16:15:02;;;;;;;;;;;;;;;;;;5033909;28;19949;-75
2022/06/16 16:17:28;;;;;;;;;;;;;;;;;;5033624;28;19909;-74
2022/06/16 16:19:53;;;;;;;;;;;;;;;;;;5034116;28;20336;-74
2022/06/16 16:22:19;;;;;;;;;;;;;;;;;;5033611;28;19910;-72
2022/06/16 16:24:45;;;;;;;;;;;;;;;;;;5033758;28;20070;-74
2022/06/16 16:27:11;;;;;;;;;;;;;;;;;;5033509;28;19909;-74
2022/06/16 16:29:37;;;;;;;;;;;;;;;;;;5032208;28;20266;-74
2022/06/16 16:32:03;;;;;;;;;;;;;;;;;;5033503;28;19920;-74
2022/06/16 16:34:31;;;;;;;;;;;;;;;;;;5033460;28;19976;-76
2022/06/16 16:36:57;;;;;;;;;;;;;;;;;;5031958;28;19948;-73
2022/06/16 16:39:24;;;;;;;;;;;;;;;;;;5033383;28;20002;-74
2022/06/16 16:44:34;;;;;;;;;;;;;;;;;;5033061;28;20020;-76
2022/06/16 16:47:01;;;;;;;;;;;;;;;;;;5033885;28;20372;-74
2022/06/16 16:49:27;;;;;;;;;;;;;;;;;;5033318;28;20369;-73
2022/06/16 16:51:52;;;;;;;;;;;;;;;;;;5033865;28;19920;-75
2022/06/16 16:54:18;;;;;;;;;;;;;;;;;;5033298;28;19909;-75
2022/06/16 16:56:44;;;;;;;;;;;;;;;;;;5033283;28;19932;-74
2022/06/16 16:59:10;;;;;;;;;;;;;;;;;;5033768;28;19916;-73
2022/06/16 17:01:36;;;;;;;;;;;;;;;;;;5031905;28;19909;-74